Time;durP1;ratioP1;P1;durP2;ratioP2;P2;SDS_P1;SDS_P2;PMS_P1;PMS_P2;Temp;Humidity;BMP_temperature;BMP_pressure;BME280_temperature;BME280_humidity;BME280_pressure;Samples;Min_cycle;Max_cycle;Signal;HPM_P1;HPM_P2
2022/08/10 00:00:22;;;;;;;1.60;1.50;;;18.00;99.90;;;;;;7384955;19;20344;-76
2022/08/10 00:02:53;;;;;;;2.30;2.10;;;18.00;99.90;;;;;;7180121;19;2004817;-76
2022/08/10 00:05:19;;;;;;;4.15;2.03;;;17.90;99.90;;;;;;7383409;19;20332;-76
2022/08/10 00:07:45;;;;;;;2.23;2.00;;;17.80;99.90;;;;;;7383574;19;20295;-76
2022/08/10 00:10:11;;;;;;;1.83;1.73;;;17.70;99.90;;;;;;7384950;19;20312;-76
2022/08/10 00:12:38;;;;;;;1.90;1.80;;;17.60;99.90;;;;;;7385188;19;20323;-76
2022/08/10 00:15:04;;;;;;;1.95;1.85;;;17.60;99.90;;;;;;7385161;19;20349;-76
2022/08/10 00:17:30;;;;;;;2.70;2.00;;;17.50;99.90;;;;;;7381404;19;20352;-76
2022/08/10 00:19:55;;;;;;;2.10;1.90;;;17.40;99.90;;;;;;7385357;19;20986;-77
2022/08/10 00:22:21;;;;;;;2.83;1.83;;;17.20;99.90;;;;;;7385790;19;20391;-76
2022/08/10 00:24:46;;;;;;;2.20;1.80;;;17.10;99.90;;;;;;7383269;19;20425;-76
2022/08/10 00:27:12;;;;;;;3.47;1.60;;;17.10;99.90;;;;;;7382772;19;20348;-76
2022/08/10 00:29:37;;;;;;;1.70;1.60;;;17.10;99.90;;;;;;7385799;19;20653;-75
2022/08/10 00:32:03;;;;;;;1.80;1.70;;;17.10;99.90;;;;;;7388815;19;20368;-76
2022/08/10 00:34:30;;;;;;;1.70;1.60;;;17.20;99.90;;;;;;7386392;19;20344;-76
2022/08/10 00:36:56;;;;;;;2.05;1.92;;;17.10;99.90;;;;;;7384966;19;20944;-76
2022/08/10 00:39:21;;;;;;;2.00;1.90;;;17.00;99.90;;;;;;7386376;19;20349;-75
2022/08/10 00:41:47;;;;;;;1.77;1.67;;;17.00;99.90;;;;;;7384107;19;20341;-76
2022/08/10 00:44:12;;;;;;;2.20;2.00;;;17.00;99.90;;;;;;7384154;19;20320;-76
2022/08/10 00:46:38;;;;;;;2.22;2.03;;;17.00;99.90;;;;;;7382574;19;20320;-76
2022/08/10 00:49:04;;;;;;;2.13;1.93;;;16.90;99.90;;;;;;7382091;19;20914;-76
2022/08/10 00:51:29;;;;;;;2.70;1.90;;;16.70;99.90;;;;;;7384053;19;20312;-76
2022/08/10 00:53:55;;;;;;;2.00;1.90;;;16.60;99.90;;;;;;7385517;19;20344;-75
2022/08/10 00:56:20;;;;;;;2.40;2.00;;;16.60;99.90;;;;;;7381552;19;20320;-76
2022/08/10 00:58:46;;;;;;;2.42;2.22;;;16.50;99.90;;;;;;7382666;19;20415;-75
2022/08/10 01:01:12;;;;;;;1.80;1.70;;;16.40;99.90;;;;;;7383629;19;21015;-77
2022/08/10 01:03:38;;;;;;;2.20;2.00;;;16.40;99.90;;;;;;7382566;19;20352;-77
2022/08/10 01:06:12;;;;;;;2.50;2.30;;;16.30;99.90;;;;;;7385044;19;20357;-77
2022/08/10 01:08:40;;;;;;;2.55;2.35;;;16.30;99.90;;;;;;7381742;19;20334;-76
2022/08/10 01:11:10;;;;;;;1.90;1.80;;;16.20;99.90;;;;;;7383167;19;20343;-76
2022/08/10 01:14:00;;;;;;;2.10;1.90;;;16.20;99.90;;;;;;7380040;19;20407;-76
2022/08/10 01:16:38;;;;;;;2.42;1.98;;;16.20;99.90;;;;;;7278006;19;2019105;-76
2022/08/10 01:19:19;;;;;;;3.38;2.10;;;16.20;99.90;;;;;;7380629;19;20347;-77
2022/08/10 01:22:23;;;;;;;2.03;1.83;;;16.10;99.90;;;;;;7380864;19;20325;-76
2022/08/10 01:25:27;;;;;;;2.40;2.20;;;16.00;99.90;;;;;;7176716;19;2004746;-76
2022/08/10 01:28:11;;;;;;;2.97;2.15;;;16.00;99.90;;;;;;7279172;19;2004524;-76
2022/08/10 01:30:36;;;;;;;2.22;2.03;;;16.00;99.90;;;;;;7383149;19;20320;-76
2022/08/10 01:33:11;;;;;;;2.23;2.03;;;16.00;99.90;;;;;;7381031;19;20333;-77
2022/08/10 01:35:37;;;;;;;2.25;2.05;;;15.90;99.90;;;;;;7379208;19;20315;-77
2022/08/10 01:38:09;;;;;;;2.40;2.20;;;15.80;99.90;;;;;;7380441;19;20367;-76
2022/08/10 01:40:37;;;;;;;2.22;2.00;;;15.80;99.90;;;;;;7381513;19;20337;-76
2022/08/10 01:43:05;;;;;;;3.08;2.30;;;15.70;99.90;;;;;;7381765;19;20340;-76
2022/08/10 01:45:30;;;;;;;2.50;2.30;;;15.70;99.90;;;;;;7379696;19;20353;-75
2022/08/10 01:50:46;;;;;;;2.03;1.90;;;15.50;99.90;;;;;;7382387;19;20988;-76
2022/08/10 01:53:15;;;;;;;2.10;1.90;;;15.50;99.90;;;;;;7381125;19;20343;-76
2022/08/10 01:55:41;;;;;;;2.03;1.92;;;15.50;99.90;;;;;;7381719;19;20307;-76
2022/08/10 01:58:07;;;;;;;2.50;2.10;;;15.60;99.90;;;;;;7379857;19;20309;-76
2022/08/10 02:00:34;;;;;;;2.37;2.17;;;15.60;99.90;;;;;;7382847;19;20882;-76
2022/08/10 02:02:59;;;;;;;3.30;2.28;;;15.60;99.90;;;;;;7384495;19;20365;-76
2022/08/10 02:05:25;;;;;;;2.42;2.22;;;15.60;99.90;;;;;;7383838;19;20320;-76
2022/08/10 02:07:50;;;;;;;2.60;2.40;;;15.50;99.90;;;;;;7380883;19;21110;-76
2022/08/10 02:10:18;;;;;;;3.00;2.70;;;15.50;99.90;;;;;;7380773;19;20333;-76
2022/08/10 02:12:43;;;;;;;4.13;2.43;;;15.30;99.90;;;;;;7382661;19;20320;-76
2022/08/10 02:15:15;;;;;;;2.80;2.50;;;15.20;99.90;;;;;;7380795;19;20380;-76
2022/08/10 02:17:42;;;;;;;2.45;2.25;;;15.20;99.90;;;;;;7377826;19;20300;-77
2022/08/10 02:20:19;;;;;;;3.05;2.75;;;15.20;99.90;;;;;;7382034;19;20301;-76
2022/08/10 02:22:47;;;;;;;3.90;3.17;;;15.10;99.90;;;;;;7380813;19;20379;-77
2022/08/10 02:25:13;;;;;;;2.57;2.37;;;14.90;99.90;;;;;;7377045;19;20525;-76
2022/08/10 02:27:38;;;;;;;2.65;2.45;;;14.80;99.90;;;;;;7378601;19;20860;-76
2022/08/10 02:30:04;;;;;;;2.77;2.50;;;14.90;99.90;;;;;;7381045;19;20337;-76
2022/08/10 02:32:31;;;;;;;2.50;2.30;;;14.80;99.90;;;;;;7378672;19;20659;-77
2022/08/10 02:34:56;;;;;;;2.70;2.50;;;14.90;99.90;;;;;;7380299;19;20928;-76
2022/08/10 02:37:23;;;;;;;3.73;2.80;;;14.90;99.90;;;;;;7377772;19;20332;-76
2022/08/10 02:39:49;;;;;;;2.65;2.45;;;14.80;99.90;;;;;;7381356;19;20333;-76
2022/08/10 02:42:26;;;;;;;2.75;2.50;;;14.80;99.90;;;;;;7379460;19;20328;-74
2022/08/10 02:45:07;;;;;;;2.65;2.45;;;14.80;99.90;;;;;;7276993;19;2019686;-75
2022/08/10 02:47:40;;;;;;;2.47;2.27;;;14.80;99.90;;;;;;7377756;19;20344;-75
2022/08/10 02:50:11;;;;;;;2.40;2.20;;;14.80;99.90;;;;;;7380207;19;20339;-75
2022/08/10 02:52:40;;;;;;;2.42;2.22;;;14.90;99.90;;;;;;7381372;19;20391;-75
2022/08/10 02:55:11;;;;;;;2.35;2.15;;;14.90;99.90;;;;;;7382989;19;20378;-76
2022/08/10 02:57:37;;;;;;;2.85;2.55;;;14.80;99.90;;;;;;7380642;19;20319;-75
2022/08/10 03:00:06;;;;;;;3.15;2.40;;;14.80;99.90;;;;;;7382481;19;20341;-75
2022/08/10 03:02:34;;;;;;;3.40;3.07;;;14.70;99.90;;;;;;7380092;19;20312;-75
2022/08/10 03:05:02;;;;;;;2.58;2.38;;;14.60;99.90;;;;;;7380296;19;20356;-75
2022/08/10 03:07:31;;;;;;;2.75;2.55;;;14.50;99.90;;;;;;7376776;19;20308;-75
2022/08/10 03:09:57;;;;;;;2.50;2.30;;;14.50;99.90;;;;;;7380783;19;20356;-75
2022/08/10 03:12:22;;;;;;;3.95;3.47;;;14.50;99.90;;;;;;7381161;19;20321;-76
2022/08/10 03:14:48;;;;;;;3.60;3.30;;;14.40;99.90;;;;;;7379835;19;20412;-75
2022/08/10 03:17:13;;;;;;;3.70;2.83;;;14.30;99.90;;;;;;7377579;19;20316;-76
2022/08/10 03:19:39;;;;;;;2.85;2.65;;;14.20;99.90;;;;;;7376489;19;20308;-76
2022/08/10 03:22:05;;;;;;;3.10;2.90;;;14.30;99.90;;;;;;7377402;19;20341;-76
2022/08/10 03:24:30;;;;;;;3.10;2.85;;;14.20;99.90;;;;;;7379294;19;20901;-76
2022/08/10 03:26:56;;;;;;;3.23;2.93;;;14.20;99.90;;;;;;7374157;19;20355;-76
2022/08/10 03:29:22;;;;;;;4.18;3.08;;;14.20;99.90;;;;;;7378164;19;20359;-75
2022/08/10 03:31:47;;;;;;;4.10;2.87;;;14.20;99.90;;;;;;7377484;19;20352;-75
2022/08/10 03:34:14;;;;;;;3.85;2.92;;;14.20;99.90;;;;;;7376632;19;20332;-75
2022/08/10 03:36:39;;;;;;;3.20;2.95;;;14.10;99.90;;;;;;7374554;19;20336;-75
2022/08/10 03:39:05;;;;;;;3.10;2.60;;;14.10;99.90;;;;;;7383817;19;20364;-75
2022/08/10 03:41:35;;;;;;;3.00;2.80;;;14.10;99.90;;;;;;7377040;19;20682;-75
2022/08/10 03:44:01;;;;;;;3.33;2.95;;;14.10;99.90;;;;;;7364613;19;20433;-75
2022/08/10 03:46:26;;;;;;;2.70;2.50;;;14.10;99.90;;;;;;7372242;19;20443;-76
2022/08/10 03:48:54;;;;;;;3.60;3.22;;;14.10;99.90;;;;;;7374798;19;20333;-76
2022/08/10 03:51:21;;;;;;;3.70;3.20;;;14.10;99.90;;;;;;7375568;19;20304;-76
2022/08/10 03:53:46;;;;;;;3.33;3.00;;;14.10;99.90;;;;;;7375655;19;20350;-76
2022/08/10 03:56:12;;;;;;;3.40;3.10;;;14.10;99.90;;;;;;7375371;19;20320;-75
2022/08/10 03:58:37;;;;;;;2.63;2.42;;;14.10;99.90;;;;;;7374356;19;20296;-75
2022/08/10 04:01:03;;;;;;;4.17;2.70;;;14.10;99.90;;;;;;7374984;19;20449;-75
2022/08/10 04:03:28;;;;;;;2.92;2.50;;;14.10;99.90;;;;;;7375582;19;20717;-75
2022/08/10 04:05:54;;;;;;;4.73;3.17;;;14.20;99.90;;;;;;7380205;19;20337;-74
2022/08/10 04:08:20;;;;;;;3.17;2.80;;;14.20;99.90;;;;;;7380257;19;20347;-75
2022/08/10 04:10:45;;;;;;;2.63;2.43;;;14.30;99.90;;;;;;7384103;19;20305;-74
2022/08/10 04:13:11;;;;;;;2.93;2.63;;;14.30;99.90;;;;;;7383922;19;20726;-75
2022/08/10 04:15:37;;;;;;;2.92;2.72;;;14.40;99.90;;;;;;7382926;19;20315;-74
2022/08/10 04:18:02;;;;;;;3.05;2.70;;;14.40;99.90;;;;;;7379565;19;20352;-75
2022/08/10 04:20:30;;;;;;;3.10;2.80;;;14.50;99.90;;;;;;7383685;19;20362;-74
2022/08/10 04:22:57;;;;;;;3.47;2.88;;;14.60;99.90;;;;;;7382845;19;20337;-75
2022/08/10 04:25:23;;;;;;;3.00;2.70;;;14.60;99.90;;;;;;7381247;19;20869;-75
2022/08/10 04:27:49;;;;;;;2.70;2.50;;;14.70;99.90;;;;;;7380744;19;20961;-75
2022/08/10 04:30:14;;;;;;;3.05;2.47;;;14.70;99.90;;;;;;7381120;19;20360;-75
2022/08/10 04:32:40;;;;;;;2.70;2.50;;;14.80;99.90;;;;;;7382058;19;20320;-75
2022/08/10 04:35:09;;;;;;;3.40;3.10;;;14.80;99.90;;;;;;7382248;19;20384;-75
2022/08/10 04:37:36;;;;;;;3.50;2.92;;;14.80;99.90;;;;;;7378319;19;21037;-75
2022/08/10 04:40:02;;;;;;;3.10;2.80;;;14.80;99.90;;;;;;7381934;19;20633;-75
2022/08/10 04:42:28;;;;;;;4.47;2.90;;;14.90;99.90;;;;;;7381361;19;20389;-75
2022/08/10 04:44:53;;;;;;;3.03;2.73;;;14.90;99.90;;;;;;7380951;19;20677;-75
2022/08/10 04:47:19;;;;;;;3.15;2.78;;;15.00;99.90;;;;;;7380256;19;20343;-75
2022/08/10 04:49:44;;;;;;;4.27;3.00;;;15.00;99.90;;;;;;7381348;19;20353;-75
2022/08/10 04:52:10;;;;;;;3.63;2.85;;;15.00;99.90;;;;;;7382512;19;20338;-75
2022/08/10 04:54:35;;;;;;;4.37;3.30;;;15.00;99.90;;;;;;7379640;19;20348;-75
2022/08/10 04:57:01;;;;;;;3.30;3.00;;;15.00;99.90;;;;;;7377631;19;20345;-75
2022/08/10 04:59:26;;;;;;;4.07;3.25;;;15.00;99.90;;;;;;7378710;19;20361;-74
2022/08/10 05:01:52;;;;;;;4.07;3.07;;;15.10;99.90;;;;;;7378360;19;21076;-75
2022/08/10 05:04:18;;;;;;;3.47;3.00;;;15.20;99.90;;;;;;7381442;19;20357;-75
2022/08/10 05:06:43;;;;;;;3.20;2.90;;;15.30;99.90;;;;;;7379223;19;20502;-75
2022/08/10 05:09:09;;;;;;;3.40;2.63;;;15.50;99.90;;;;;;7385275;19;20317;-75
2022/08/10 05:11:34;;;;;;;3.70;3.30;;;15.60;99.90;;;;;;7387217;19;20344;-73
2022/08/10 05:14:00;;;;;;;3.10;2.80;;;15.70;99.90;;;;;;7384133;19;20344;-75
2022/08/10 05:16:25;;;;;;;3.27;2.97;;;15.70;99.90;;;;;;7371401;19;21201;-76
2022/08/10 05:18:51;;;;;;;4.97;3.20;;;15.80;99.90;;;;;;7380403;19;20354;-76
2022/08/10 05:21:16;;;;;;;3.23;2.93;;;15.90;99.90;;;;;;7380941;19;20309;-75
2022/08/10 05:23:42;;;;;;;3.20;2.90;;;16.00;99.90;;;;;;7382622;19;20850;-75
2022/08/10 05:26:08;;;;;;;2.88;2.65;;;16.00;99.90;;;;;;7380543;19;20337;-76
2022/08/10 05:28:33;;;;;;;6.27;3.27;;;16.10;99.90;;;;;;7377904;19;20324;-75
2022/08/10 05:30:59;;;;;;;4.47;3.20;;;16.10;99.90;;;;;;7380117;19;20352;-75
2022/08/10 05:33:24;;;;;;;3.20;2.90;;;16.00;99.90;;;;;;7382479;19;20309;-75
2022/08/10 05:35:50;;;;;;;3.78;2.83;;;16.00;99.90;;;;;;7381919;19;20875;-75
2022/08/10 05:38:15;;;;;;;3.40;2.90;;;16.10;99.90;;;;;;7380035;19;20339;-75
2022/08/10 05:40:42;;;;;;;2.90;2.70;;;16.10;99.90;;;;;;7380295;19;20998;-75
2022/08/10 05:43:07;;;;;;;3.13;2.80;;;16.10;99.90;;;;;;7380099;19;20332;-75
2022/08/10 05:45:33;;;;;;;4.82;3.83;;;16.20;99.90;;;;;;7378394;19;20313;-75
2022/08/10 05:47:58;;;;;;;4.20;3.37;;;16.10;99.90;;;;;;7378706;19;20343;-75
2022/08/10 05:50:26;;;;;;;3.40;3.10;;;16.10;99.90;;;;;;7381184;19;20309;-75
2022/08/10 05:52:52;;;;;;;3.83;3.20;;;16.10;99.90;;;;;;7381083;19;20452;-75
2022/08/10 05:55:18;;;;;;;6.07;3.78;;;16.20;99.90;;;;;;7380366;19;20417;-75
2022/08/10 05:57:43;;;;;;;3.80;3.00;;;16.30;99.90;;;;;;7380403;19;21089;-75
2022/08/10 06:00:11;;;;;;;4.23;3.07;;;16.50;99.90;;;;;;7379056;19;20699;-75
2022/08/10 06:02:42;;;;;;;4.00;3.50;;;16.60;99.90;;;;;;7379892;19;20312;-75
2022/08/10 06:05:12;;;;;;;4.38;3.13;;;16.80;99.90;;;;;;7380121;19;20865;-75
2022/08/10 06:07:52;;;;;;;6.70;3.90;;;16.90;99.90;;;;;;7377519;19;20784;-75
2022/08/10 06:10:18;;;;;;;5.45;3.17;;;17.00;99.90;;;;;;7276581;19;2019863;-75
2022/08/10 06:12:45;;;;;;;4.17;3.47;;;17.20;99.90;;;;;;7380642;19;20324;-75
2022/08/10 06:15:11;;;;;;;4.43;3.77;;;17.30;99.90;;;;;;7377956;19;20316;-75
2022/08/10 06:17:36;;;;;;;4.18;3.55;;;17.50;99.90;;;;;;7375535;19;20323;-76
2022/08/10 06:20:03;;;;;;;4.00;3.07;;;17.60;99.90;;;;;;7379405;19;21024;-76
2022/08/10 06:22:31;;;;;;;5.03;3.35;;;17.80;99.90;;;;;;7378129;19;20930;-75
2022/08/10 06:24:56;;;;;;;3.65;3.28;;;17.90;99.90;;;;;;7379796;19;20360;-75
2022/08/10 06:27:22;;;;;;;3.53;3.23;;;18.00;99.90;;;;;;7374272;19;20400;-75
2022/08/10 06:29:48;;;;;;;3.92;3.25;;;18.20;99.90;;;;;;7377946;19;21125;-76
2022/08/10 06:32:13;;;;;;;3.85;3.15;;;18.30;99.90;;;;;;7379319;19;21254;-76
2022/08/10 06:34:46;;;;;;;4.80;3.60;;;18.40;99.90;;;;;;7379398;19;21067;-75
2022/08/10 06:37:13;;;;;;;4.93;3.57;;;18.60;99.90;;;;;;7376470;19;20312;-75
2022/08/10 06:39:38;;;;;;;4.68;3.38;;;18.70;99.90;;;;;;7380543;19;20305;-74
2022/08/10 06:42:06;;;;;;;4.00;3.50;;;18.90;99.90;;;;;;7379688;19;20345;-75
2022/08/10 06:44:35;;;;;;;3.42;3.13;;;19.00;99.90;;;;;;7382753;19;20866;-75
2022/08/10 06:47:00;;;;;;;3.72;3.40;;;19.20;99.90;;;;;;7379490;19;20352;-76
2022/08/10 06:49:26;;;;;;;3.73;3.00;;;19.40;99.90;;;;;;7384168;19;20348;-75
2022/08/10 06:51:55;;;;;;;3.67;3.38;;;19.60;99.90;;;;;;7380004;19;20377;-76
2022/08/10 06:54:25;;;;;;;4.43;3.33;;;19.80;99.90;;;;;;7376327;19;20923;-75
2022/08/10 06:56:51;;;;;;;3.30;3.00;;;19.90;99.90;;;;;;7375247;19;21228;-76
2022/08/10 06:59:28;;;;;;;4.32;3.65;;;20.10;99.90;;;;;;7378456;19;20349;-76
2022/08/10 07:01:59;;;;;;;5.90;3.23;;;20.10;99.90;;;;;;7277119;19;2004505;-76
2022/08/10 07:04:38;;;;;;;3.55;3.22;;;20.20;99.90;;;;;;7378891;19;20355;-76
2022/08/10 07:07:04;;;;;;;3.30;3.00;;;20.40;99.90;;;;;;7373355;19;20337;-76
2022/08/10 07:09:30;;;;;;;3.50;3.13;;;20.70;99.90;;;;;;7378356;19;20345;-76
2022/08/10 07:11:56;;;;;;;6.25;3.33;;;20.90;99.90;;;;;;7378430;19;20343;-75
2022/08/10 07:14:21;;;;;;;3.53;2.73;;;21.00;99.90;;;;;;7378566;19;20321;-76
2022/08/10 07:16:47;;;;;;;3.70;3.17;;;21.20;99.90;;;;;;7375463;19;20340;-76
2022/08/10 07:19:13;;;;;;;4.17;3.00;;;21.30;99.90;;;;;;7378077;19;20312;-75
2022/08/10 07:21:39;;;;;;;3.77;3.07;;;21.50;99.90;;;;;;7382412;19;20322;-75
2022/08/10 07:24:08;;;;;;;6.10;3.58;;;21.80;99.90;;;;;;7380846;19;20361;-75
2022/08/10 07:26:33;;;;;;;3.20;2.90;;;21.90;99.90;;;;;;7379790;19;20336;-76
2022/08/10 07:28:59;;;;;;;2.70;2.50;;;22.00;99.90;;;;;;7378986;19;20361;-74
2022/08/10 07:31:25;;;;;;;3.83;3.30;;;22.20;99.90;;;;;;7380096;19;20332;-75
2022/08/10 07:33:53;;;;;;;5.37;3.43;;;22.40;99.90;;;;;;7375749;19;20365;-76
2022/08/10 07:36:22;;;;;;;3.60;3.30;;;22.50;99.90;;;;;;7378698;19;20377;-76
2022/08/10 07:38:49;;;;;;;3.72;3.30;;;22.50;99.90;;;;;;7379161;19;20332;-75
2022/08/10 07:41:15;;;;;;;6.53;3.40;;;22.40;99.90;;;;;;7387793;19;20328;-75
2022/08/10 07:43:40;;;;;;;3.55;3.25;;;22.40;99.90;;;;;;7386852;19;20351;-76
2022/08/10 07:46:10;;;;;;;5.27;3.63;;;22.60;99.90;;;;;;7384887;19;20959;-74
2022/08/10 07:48:41;;;;;;;4.63;3.70;;;22.70;99.90;;;;;;7385306;19;20317;-75
2022/08/10 07:51:06;;;;;;;4.22;3.60;;;22.80;99.90;;;;;;7382458;19;20345;-75
2022/08/10 07:53:36;;;;;;;6.70;4.13;;;22.80;99.90;;;;;;7383642;19;20997;-75
2022/08/10 07:56:01;;;;;;;4.25;3.55;;;22.90;99.90;;;;;;7382388;19;20328;-74
2022/08/10 07:58:35;;;;;;;5.95;3.60;;;23.10;99.90;;;;;;7384056;19;20834;-75
2022/08/10 08:01:00;;;;;;;3.67;3.28;;;23.20;99.90;;;;;;7384317;19;20411;-74
2022/08/10 08:03:27;;;;;;;3.50;3.20;;;23.30;99.90;;;;;;7382221;19;21345;-75
2022/08/10 08:05:54;;;;;;;3.20;2.90;;;23.60;99.90;;;;;;7384757;19;20519;-75
2022/08/10 08:08:19;;;;;;;4.75;3.72;;;23.80;99.90;;;;;;7381613;19;21014;-74
2022/08/10 08:10:45;;;;;;;4.00;3.60;;;24.00;99.90;;;;;;7387493;19;20325;-75
2022/08/10 08:13:11;;;;;;;3.45;3.17;;;24.20;99.90;;;;;;7384471;19;20630;-75
2022/08/10 08:15:37;;;;;;;5.80;3.55;;;24.30;99.90;;;;;;7383492;19;20311;-74
2022/08/10 08:18:04;;;;;;;4.25;3.60;;;24.30;99.90;;;;;;7383798;19;20337;-76
2022/08/10 08:20:29;;;;;;;4.43;3.50;;;24.40;99.90;;;;;;7387507;19;20412;-76
2022/08/10 08:22:55;;;;;;;3.72;3.30;;;24.50;99.90;;;;;;7386122;19;20345;-75
2022/08/10 08:25:21;;;;;;;3.83;3.47;;;24.80;99.90;;;;;;7381398;19;20317;-75
2022/08/10 08:27:51;;;;;;;4.07;3.50;;;24.90;99.90;;;;;;7380090;19;21319;-76
2022/08/10 08:30:17;;;;;;;5.50;3.40;;;25.00;99.90;;;;;;7381857;19;20901;-75
2022/08/10 08:32:42;;;;;;;3.67;3.28;;;25.20;99.90;;;;;;7380387;19;20724;-76
2022/08/10 08:35:10;;;;;;;3.23;2.90;;;25.30;99.90;;;;;;7382216;19;20655;-75
2022/08/10 08:37:36;;;;;;;3.58;3.28;;;25.60;99.90;;;;;;7379825;19;20341;-75
2022/08/10 08:40:07;;;;;;;4.45;3.00;;;25.80;99.90;;;;;;7382865;19;20997;-75
2022/08/10 08:43:07;;;;;;;4.28;2.80;;;25.90;99.90;;;;;;7382758;19;20352;-75
2022/08/10 08:46:00;;;;;;;2.70;2.50;;;26.10;99.90;;;;;;7277969;19;2004193;-75
2022/08/10 08:48:55;;;;;;;3.10;2.60;;;26.40;99.90;;;;;;7276739;19;2004471;-75
2022/08/10 08:51:31;;;;;;;2.83;2.63;;;26.70;99.90;;;;;;7277224;19;2004667;-75
2022/08/10 08:54:15;;;;;;;3.03;2.53;;;27.00;99.90;;;;;;7383546;19;20339;-75
2022/08/10 08:56:53;;;;;;;3.60;2.50;;;27.20;99.90;;;;;;7376328;19;20332;-77
2022/08/10 08:59:55;;;;;;;3.60;2.88;;;27.10;99.90;;;;;;7277741;19;2020166;-76
2022/08/10 09:02:35;;;;;;;3.10;2.20;;;27.10;99.90;;;;;;7276112;19;2005865;-76
2022/08/10 09:05:30;;;;;;;2.05;1.92;;;27.40;99.90;;;;;;7379899;19;20455;-77
2022/08/10 09:08:01;;;;;;;2.22;2.03;;;27.90;99.90;;;;;;7274489;19;2004142;-77
2022/08/10 09:10:44;;;;;;;2.92;2.63;;;28.30;99.90;;;;;;7379906;19;20986;-77
2022/08/10 09:13:18;;;;;;;2.20;2.10;;;28.10;98.90;;;;;;7381157;19;20309;-77
2022/08/10 09:16:18;;;;;;;2.50;2.30;;;27.90;99.90;;;;;;7379256;19;20304;-77
2022/08/10 09:19:02;;;;;;;2.67;2.30;;;27.90;99.90;;;;;;7277083;19;2004499;-76
2022/08/10 09:21:34;;;;;;;5.35;2.92;;;28.00;99.90;;;;;;7278862;19;2004535;-76
2022/08/10 09:24:09;;;;;;;2.55;2.30;;;27.70;99.90;;;;;;7381052;19;20344;-76
2022/08/10 09:26:40;;;;;;;2.40;2.20;;;27.30;97.60;;;;;;7375602;19;20333;-76
2022/08/10 09:29:06;;;;;;;2.90;2.43;;;27.20;98.40;;;;;;7381077;19;20361;-76
2022/08/10 09:31:48;;;;;;;2.37;2.17;;;27.00;98.90;;;;;;7379118;19;20321;-76
2022/08/10 09:34:19;;;;;;;2.45;1.85;;;26.90;99.20;;;;;;7379584;19;20312;-76
2022/08/10 09:37:07;;;;;;;3.63;2.60;;;26.80;99.90;;;;;;7377312;19;20355;-76
2022/08/10 09:39:54;;;;;;;2.50;2.30;;;26.90;99.90;;;;;;7275718;19;2019981;-76
2022/08/10 09:42:27;;;;;;;3.13;2.20;;;27.00;99.90;;;;;;7280132;19;2004417;-76
2022/08/10 09:45:04;;;;;;;2.13;2.00;;;27.00;99.90;;;;;;7382189;19;20395;-76
2022/08/10 09:47:51;;;;;;;2.60;2.38;;;27.00;99.60;;;;;;7380103;19;20341;-76
2022/08/10 09:50:40;;;;;;;2.33;2.13;;;26.80;98.70;;;;;;7384101;19;20693;-74
2022/08/10 09:53:12;;;;;;;2.55;1.90;;;26.70;99.40;;;;;;7283528;19;2004323;-74
2022/08/10 09:55:47;;;;;;;1.90;1.70;;;26.40;98.90;;;;;;7384517;19;21051;-75
2022/08/10 09:58:39;;;;;;;7.43;2.60;;;26.50;99.90;;;;;;7380668;19;20316;-75
2022/08/10 10:01:11;;;;;;;2.75;2.22;;;26.60;99.90;;;;;;7280420;19;2004648;-75
2022/08/10 10:03:43;;;;;;;2.40;2.20;;;26.60;99.90;;;;;;7379234;19;20328;-75
2022/08/10 10:06:17;;;;;;;3.00;1.90;;;26.50;99.90;;;;;;7381273;19;20332;-74
2022/08/10 10:09:10;;;;;;;2.65;2.45;;;26.40;99.90;;;;;;7377943;19;20301;-74
2022/08/10 10:12:05;;;;;;;3.75;2.65;;;26.40;99.90;;;;;;7279595;19;2004479;-74
2022/08/10 10:17:58;;;;;;;2.75;2.05;;;26.20;98.30;;;;;;7276832;19;2004584;-74
2022/08/10 10:20:32;;;;;;;3.40;2.05;;;26.00;95.70;;;;;;7279567;19;2004402;-74
2022/08/10 10:23:17;;;;;;;1.80;1.70;;;26.00;97.90;;;;;;7382558;19;20352;-74
2022/08/10 10:26:10;;;;;;;2.42;2.00;;;26.20;99.80;;;;;;7380394;19;21190;-74
2022/08/10 10:28:58;;;;;;;2.35;2.15;;;26.50;98.90;;;;;;7275399;19;2004549;-74
2022/08/10 10:31:55;;;;;;;1.50;1.40;;;26.50;99.60;;;;;;7280176;19;2004320;-74
2022/08/10 10:34:47;;;;;;;2.67;2.05;;;26.60;98.50;;;;;;7278462;19;2004527;-74
2022/08/10 10:37:12;;;;;;;4.22;2.67;;;26.60;99.30;;;;;;7377934;19;20297;-74
2022/08/10 10:39:42;;;;;;;4.25;3.17;;;26.60;97.90;;;;;;7379292;19;20308;-74
2022/08/10 10:42:42;;;;;;;3.80;2.50;;;26.60;98.10;;;;;;7382287;19;20400;-74
2022/08/10 10:45:27;;;;;;;5.43;2.78;;;26.60;98.40;;;;;;7277691;19;2017233;-74
2022/08/10 10:48:20;;;;;;;2.80;2.50;;;26.70;98.90;;;;;;7276452;19;2013777;-74
2022/08/10 10:51:15;;;;;;;2.10;1.83;;;26.70;99.10;;;;;;7378312;19;20351;-74
2022/08/10 10:53:58;;;;;;;2.20;2.00;;;26.80;99.20;;;;;;7276182;19;2019177;-74
2022/08/10 10:56:27;;;;;;;2.05;1.80;;;27.00;99.90;;;;;;7273786;19;2004690;-74
2022/08/10 10:59:05;;;;;;;2.58;2.08;;;27.10;97.10;;;;;;7379613;19;20847;-74
2022/08/10 11:01:39;;;;;;;1.92;1.80;;;27.20;93.60;;;;;;7380182;19;20344;-74
2022/08/10 11:04:15;;;;;;;1.80;1.70;;;27.20;93.60;;;;;;7378916;19;21009;-73
2022/08/10 11:07:03;;;;;;;2.30;2.10;;;27.20;94.60;;;;;;7375387;19;20316;-74
2022/08/10 11:09:47;;;;;;;2.05;1.90;;;27.10;95.60;;;;;;7275928;19;2004837;-74
2022/08/10 11:12:49;;;;;;;2.10;1.90;;;27.10;95.60;;;;;;7380018;19;20319;-73
2022/08/10 11:15:21;;;;;;;1.90;1.70;;;27.20;96.40;;;;;;7280400;19;2004570;-74
2022/08/10 11:18:07;;;;;;;2.30;2.10;;;27.40;95.40;;;;;;7383297;19;20370;-74
2022/08/10 11:20:43;;;;;;;3.05;2.03;;;27.80;95.50;;;;;;7283641;19;2007337;-74
2022/08/10 11:23:17;;;;;;;2.23;1.83;;;27.50;91.60;;;;;;7386506;19;20332;-74
2022/08/10 11:25:45;;;;;;;2.00;1.90;;;27.90;91.90;;;;;;7386081;19;20319;-74
2022/08/10 11:28:51;;;;;;;2.15;1.95;;;28.40;91.10;;;;;;7386027;19;20301;-74
2022/08/10 11:31:27;;;;;;;2.10;2.00;;;28.70;90.80;;;;;;7183539;19;2004589;-75
2022/08/10 11:34:05;;;;;;;2.00;1.88;;;29.40;89.30;;;;;;7283798;19;2019961;-74
2022/08/10 11:37:14;;;;;;;2.38;2.17;;;29.90;85.40;;;;;;7382869;19;20398;-75
2022/08/10 11:39:46;;;;;;;2.07;1.93;;;30.30;84.10;;;;;;7282365;19;2004304;-74
2022/08/10 11:42:34;;;;;;;2.28;2.08;;;30.70;80.60;;;;;;7383248;19;20325;-75
2022/08/10 11:45:21;;;;;;;4.93;2.22;;;30.90;81.70;;;;;;7280879;19;2019756;-75
2022/08/10 11:47:55;;;;;;;1.90;1.80;;;31.30;79.90;;;;;;7380520;19;20334;-75
2022/08/10 11:50:25;;;;;;;3.17;2.00;;;31.70;74.30;;;;;;7277097;19;2004426;-75
2022/08/10 11:53:14;;;;;;;2.80;2.20;;;31.90;73.30;;;;;;7383934;19;21223;-75
2022/08/10 11:55:40;;;;;;;2.03;1.90;;;32.00;68.00;;;;;;7386579;19;21065;-75
2022/08/10 12:00:54;;;;;;;2.35;1.90;;;33.10;72.00;;;;;;7283653;19;2004345;-74
2022/08/10 12:03:20;;;;;;;2.13;1.88;;;32.20;60.60;;;;;;7385033;19;20332;-75
2022/08/10 12:05:45;;;;;;;2.20;2.00;;;32.80;63.60;;;;;;7387091;19;20398;-75
2022/08/10 12:08:11;;;;;;;2.30;2.10;;;32.90;58.80;;;;;;7384945;19;20693;-75
2022/08/10 12:10:37;;;;;;;7.27;2.10;;;32.80;58.20;;;;;;7385958;19;20308;-75
2022/08/10 12:13:13;;;;;;;4.68;2.00;;;33.10;58.30;;;;;;7387593;19;20357;-75
2022/08/10 12:15:51;;;;;;;1.90;1.73;;;33.50;62.50;;;;;;7385387;19;20325;-75
2022/08/10 12:18:20;;;;;;;2.65;2.20;;;33.90;61.90;;;;;;7382887;19;20429;-75
2022/08/10 12:20:50;;;;;;;1.80;1.70;;;33.70;54.10;;;;;;7384845;19;20325;-75
2022/08/10 12:23:29;;;;;;;2.50;2.03;;;34.20;57.60;;;;;;7382955;19;21140;-75
2022/08/10 12:25:58;;;;;;;1.90;1.80;;;34.70;56.50;;;;;;7283699;19;2004269;-75
2022/08/10 12:28:30;;;;;;;4.30;2.00;;;34.90;56.80;;;;;;7382994;19;20353;-75
2022/08/10 12:30:57;;;;;;;2.33;1.93;;;34.90;54.70;;;;;;7385580;19;20344;-75
2022/08/10 12:33:26;;;;;;;2.60;2.00;;;35.10;54.30;;;;;;7384279;19;20344;-75
2022/08/10 12:36:15;;;;;;;4.37;1.93;;;35.40;55.20;;;;;;7384223;19;20358;-75
2022/08/10 12:39:03;;;;;;;3.40;2.10;;;35.80;50.90;;;;;;7381023;19;20388;-75
2022/08/10 12:41:43;;;;;;;2.83;2.13;;;35.60;52.20;;;;;;7281110;19;2004498;-75
2022/08/10 12:44:15;;;;;;;2.33;1.80;;;35.00;48.80;;;;;;7384918;19;20419;-75
2022/08/10 12:47:00;;;;;;;3.28;2.00;;;35.10;52.60;;;;;;7380042;19;20312;-75
2022/08/10 12:49:43;;;;;;;2.08;1.88;;;35.10;52.60;;;;;;7280851;19;2019148;-75
2022/08/10 12:52:15;;;;;;;2.55;2.03;;;35.50;50.50;;;;;;7383429;19;20329;-75
2022/08/10 12:54:41;;;;;;;2.42;2.22;;;35.10;48.90;;;;;;7385098;19;20865;-76
2022/08/10 12:57:12;;;;;;;2.50;2.30;;;34.60;51.10;;;;;;7382244;19;20351;-75
2022/08/10 12:59:41;;;;;;;2.45;2.00;;;34.20;49.70;;;;;;7386800;19;20340;-75
2022/08/10 13:02:07;;;;;;;2.83;1.75;;;33.90;49.60;;;;;;7389113;19;20412;-76
2022/08/10 13:04:34;;;;;;;2.10;2.00;;;33.50;48.20;;;;;;7384142;19;20320;-75
2022/08/10 13:07:00;;;;;;;8.93;2.37;;;33.40;51.40;;;;;;7381322;19;20420;-75
2022/08/10 13:09:26;;;;;;;2.10;1.90;;;33.30;54.10;;;;;;7383348;19;20337;-74
2022/08/10 13:12:05;;;;;;;2.77;2.20;;;33.30;52.10;;;;;;7385007;19;20350;-75